Time,TemperatureF,DewpointF,PressureIn,WindDirection,WindDirectionDegrees,WindSpeedMPH,WindSpeedGustMPH,Humidity,HourlyPrecipIn,Conditions,Clouds,dailyrainin,SoftwareType,DateUTC
2013-04-07 00:05:00,56.5,42.3,29.77,North,-999,-999.0,-999.0,59,-99.99,,,-99.99,meteohub,2013-04-07 05:05:00,
2013-04-07 00:11:00,57.0,42.8,29.77,North,-999,-999.0,-999.0,59,-99.99,,,-99.99,meteohub,2013-04-07 05:11:00,
2013-04-07 00:17:00,57.9,42.8,29.78,North,-999,-999.0,-999.0,57,-99.99,,,-99.99,meteohub,2013-04-07 05:17:00,
2013-04-07 00:23:00,58.3,42.6,29.78,North,-999,-999.0,-999.0,56,-99.99,,,-99.99,meteohub,2013-04-07 05:23:00,
2013-04-07 00:29:00,58.1,42.4,29.78,North,-999,-999.0,-999.0,56,-99.99,,,-99.99,meteohub,2013-04-07 05:29:00,
2013-04-07 00:36:00,57.4,42.8,29.78,North,-999,-999.0,-999.0,58,-99.99,,,-99.99,meteohub,2013-04-07 05:36:00,
2013-04-07 00:42:00,56.8,42.3,29.78,North,-999,-999.0,-999.0,58,-99.99,,,-99.99,meteohub,2013-04-07 05:42:00,
2013-04-07 00:48:00,56.8,42.6,29.78,North,-999,-999.0,-999.0,59,-99.99,,,-99.99,meteohub,2013-04-07 05:48:00,
2013-04-07 00:55:00,56.8,43.2,29.78,North,-999,-999.0,-999.0,60,-99.99,,,-99.99,meteohub,2013-04-07 05:55:00,
2013-04-07 01:01:00,56.8,42.6,29.78,North,-999,-999.0,-999.0,59,-99.99,,,-99.99,meteohub,2013-04-07 06:01:00,
2013-04-07 01:07:00,56.7,43.0,29.78,North,-999,-999.0,-999.0,60,-99.99,,,-99.99,meteohub,2013-04-07 06:07:00,
2013-04-07 01:13:00,56.1,42.4,29.78,North,-999,-999.0,-999.0,60,-99.99,,,-99.99,meteohub,2013-04-07 06:13:00,
2013-04-07 01:20:00,55.4,43.0,29.78,North,-999,-999.0,-999.0,63,-99.99,,,-99.99,meteohub,2013-04-07 06:20:00,
2013-04-07 01:26:00,55.2,42.8,29.78,North,-999,-999.0,-999.0,63,-99.99,,,-99.99,meteohub,2013-04-07 06:26:00,
2013-04-07 01:32:00,55.2,42.8,29.78,North,-999,-999.0,-999.0,63,-99.99,,,-99.99,meteohub,2013-04-07 06:32:00,
2013-04-07 01:38:00,54.0,41.7,29.78,North,-999,-999.0,-999.0,63,-99.99,,,-99.99,meteohub,2013-04-07 06:38:00,
2013-04-07 01:44:00,53.2,41.4,29.78,North,-999,-999.0,-999.0,64,-99.99,,,-99.99,meteohub,2013-04-07 06:44:00,
2013-04-07 01:50:00,52.5,41.5,29.78,North,-999,-999.0,-999.0,66,-99.99,,,-99.99,meteohub,2013-04-07 06:50:00,
2013-04-07 01:57:00,52.2,41.5,29.78,North,-999,-999.0,-999.0,67,-99.99,,,-99.99,meteohub,2013-04-07 06:57:00,
2013-04-07 02:03:00,52.0,41.4,29.79,North,-999,-999.0,-999.0,67,-99.99,,,-99.99,meteohub,2013-04-07 07:03:00,
2013-04-07 02:09:00,52.2,42.3,29.78,North,-999,-999.0,-999.0,69,-99.99,,,-99.99,meteohub,2013-04-07 07:09:00,
2013-04-07 02:15:00,53.2,43.3,29.79,North,-999,-999.0,-999.0,69,-99.99,,,-99.99,meteohub,2013-04-07 07:15:00,
2013-04-07 02:21:00,54.3,43.2,29.78,North,-999,-999.0,-999.0,66,-99.99,,,-99.99,meteohub,2013-04-07 07:21:00,
2013-04-07 02:27:00,54.7,42.8,29.78,North,-999,-999.0,-999.0,64,-99.99,,,-99.99,meteohub,2013-04-07 07:27:00,
2013-04-07 02:32:00,54.7,42.8,29.78,North,-999,-999.0,-999.0,64,-99.99,,,-99.99,meteohub,2013-04-07 07:32:00,
2013-04-07 02:37:00,54.7,42.8,29.78,North,-999,-999.0,-999.0,64,-99.99,,,-99.99,meteohub,2013-04-07 07:37:00,
2013-04-07 02:42:00,54.7,42.8,29.78,North,-999,-999.0,-999.0,64,-99.99,,,-99.99,meteohub,2013-04-07 07:42:00,
2013-04-07 02:47:00,54.5,42.6,29.78,North,-999,-999.0,-999.0,64,-99.99,,,-99.99,meteohub,2013-04-07 07:47:00,
2013-04-07 02:52:00,54.3,42.8,29.78,North,-999,-999.0,-999.0,65,-99.99,,,-99.99,meteohub,2013-04-07 07:52:00,
2013-04-07 02:59:00,54.1,43.0,29.79,North,-999,-999.0,-999.0,66,-99.99,,,-99.99,meteohub,2013-04-07 07:59:00,
2013-04-07 03:05:00,54.0,42.8,29.78,North,-999,-999.0,-999.0,66,-99.99,,,-99.99,meteohub,2013-04-07 08:05:00,
2013-04-07 03:11:00,53.8,42.6,29.78,North,-999,-999.0,-999.0,66,-99.99,,,-99.99,meteohub,2013-04-07 08:11:00,
2013-04-07 03:17:00,53.8,42.6,29.78,North,-999,-999.0,-999.0,66,-99.99,,,-99.99,meteohub,2013-04-07 08:17:00,
2013-04-07 03:22:00,53.6,42.4,29.78,North,-999,-999.0,-999.0,66,-99.99,,,-99.99,meteohub,2013-04-07 08:22:00,
2013-04-07 03:27:00,53.6,42.4,29.79,North,-999,-999.0,-999.0,66,-99.99,,,-99.99,meteohub,2013-04-07 08:27:00,
2013-04-07 03:33:00,53.8,42.6,29.78,North,-999,-999.0,-999.0,66,-99.99,,,-99.99,meteohub,2013-04-07 08:33:00,
2013-04-07 03:39:00,53.8,42.6,29.78,North,-999,-999.0,-999.0,66,-99.99,,,-99.99,meteohub,2013-04-07 08:39:00,
2013-04-07 03:46:00,53.6,42.4,29.78,North,-999,-999.0,-999.0,66,-99.99,,,-99.99,meteohub,2013-04-07 08:46:00,
2013-04-07 03:52:00,53.8,42.6,29.78,North,-999,-999.0,-999.0,66,-99.99,,,-99.99,meteohub,2013-04-07 08:52:00,
2013-04-07 03:57:00,54.0,42.4,29.78,North,-999,-999.0,-999.0,65,-99.99,,,-99.99,meteohub,2013-04-07 08:57:00,
2013-04-07 04:02:00,54.0,42.4,29.78,North,-999,-999.0,-999.0,65,-99.99,,,-99.99,meteohub,2013-04-07 09:02:00,
2013-04-07 04:08:00,53.8,42.3,29.78,North,-999,-999.0,-999.0,65,-99.99,,,-99.99,meteohub,2013-04-07 09:08:00,
2013-04-07 04:14:00,53.6,42.4,29.78,North,-999,-999.0,-999.0,66,-99.99,,,-99.99,meteohub,2013-04-07 09:14:00,
2013-04-07 04:20:00,53.1,42.1,29.79,North,-999,-999.0,-999.0,66,-99.99,,,-99.99,meteohub,2013-04-07 09:20:00,
2013-04-07 04:26:00,52.7,42.1,29.79,North,-999,-999.0,-999.0,67,-99.99,,,-99.99,meteohub,2013-04-07 09:26:00,
2013-04-07 04:32:00,52.7,42.1,29.78,North,-999,-999.0,-999.0,67,-99.99,,,-99.99,meteohub,2013-04-07 09:32:00,
2013-04-07 04:39:00,51.6,41.7,29.78,North,-999,-999.0,-999.0,69,-99.99,,,-99.99,meteohub,2013-04-07 09:39:00,
2013-04-07 04:46:00,51.4,41.9,29.78,North,-999,-999.0,-999.0,70,-99.99,,,-99.99,meteohub,2013-04-07 09:46:00,
2013-04-07 04:52:00,51.4,42.4,29.78,North,-999,-999.0,-999.0,71,-99.99,,,-99.99,meteohub,2013-04-07 09:52:00,
2013-04-07 04:58:00,51.4,42.4,29.78,North,-999,-999.0,-999.0,71,-99.99,,,-99.99,meteohub,2013-04-07 09:58:00,
2013-04-07 05:04:00,51.6,42.4,29.78,North,-999,-999.0,-999.0,71,-99.99,,,-99.99,meteohub,2013-04-07 10:04:00,
2013-04-07 05:11:00,51.4,41.9,29.78,North,-999,-999.0,-999.0,70,-99.99,,,-99.99,meteohub,2013-04-07 10:11:00,
2013-04-07 05:17:00,50.7,41.0,29.78,North,-999,-999.0,-999.0,69,-99.99,,,-99.99,meteohub,2013-04-07 10:17:00,
2013-04-07 05:22:00,50.4,41.0,29.78,North,-999,-999.0,-999.0,70,-99.99,,,-99.99,meteohub,2013-04-07 10:22:00,
2013-04-07 05:27:00,49.1,40.5,29.78,North,-999,-999.0,-999.0,72,-99.99,,,-99.99,meteohub,2013-04-07 10:27:00,
2013-04-07 05:32:00,49.1,40.5,29.78,North,-999,-999.0,-999.0,72,-99.99,,,-99.99,meteohub,2013-04-07 10:32:00,
2013-04-07 05:39:00,48.7,40.8,29.78,North,-999,-999.0,-999.0,74,-99.99,,,-99.99,meteohub,2013-04-07 10:39:00,
2013-04-07 05:45:00,47.7,39.7,29.78,North,-999,-999.0,-999.0,74,-99.99,,,-99.99,meteohub,2013-04-07 10:45:00,
2013-04-07 05:51:00,46.8,39.2,29.78,North,-999,-999.0,-999.0,75,-99.99,,,-99.99,meteohub,2013-04-07 10:51:00,
2013-04-07 05:57:00,46.2,39.4,29.78,North,-999,-999.0,-999.0,77,-99.99,,,-99.99,meteohub,2013-04-07 10:57:00,
2013-04-07 06:02:00,45.7,39.2,29.78,North,-999,-999.0,-999.0,78,-99.99,,,-99.99,meteohub,2013-04-07 11:02:00,
2013-04-07 06:10:00,46.4,40.8,29.78,North,-999,-999.0,-999.0,81,-99.99,,,-99.99,meteohub,2013-04-07 11:10:00,
2013-04-07 06:16:00,46.8,40.6,29.79,North,-999,-999.0,-999.0,79,-99.99,,,-99.99,meteohub,2013-04-07 11:16:00,
2013-04-07 06:22:00,46.6,40.8,29.79,North,-999,-999.0,-999.0,80,-99.99,,,-99.99,meteohub,2013-04-07 11:22:00,
2013-04-07 06:28:00,46.6,40.8,29.79,North,-999,-999.0,-999.0,80,-99.99,,,-99.99,meteohub,2013-04-07 11:28:00,
2013-04-07 06:34:00,46.4,40.6,29.79,North,-999,-999.0,-999.0,80,-99.99,,,-99.99,meteohub,2013-04-07 11:34:00,
2013-04-07 06:41:00,45.9,40.3,29.79,North,-999,-999.0,-999.0,81,-99.99,,,-99.99,meteohub,2013-04-07 11:41:00,
2013-04-07 06:47:00,45.9,40.6,29.79,North,-999,-999.0,-999.0,82,-99.99,,,-99.99,meteohub,2013-04-07 11:47:00,
2013-04-07 06:52:00,46.2,41.4,29.80,North,-999,-999.0,-999.0,83,-99.99,,,-99.99,meteohub,2013-04-07 11:52:00,
2013-04-07 06:57:00,46.4,41.2,29.79,North,-999,-999.0,-999.0,82,-99.99,,,-99.99,meteohub,2013-04-07 11:57:00,
2013-04-07 07:03:00,46.6,41.7,29.80,North,-999,-999.0,-999.0,83,-99.99,,,-99.99,meteohub,2013-04-07 12:03:00,
2013-04-07 07:09:00,46.8,41.5,29.80,North,-999,-999.0,-999.0,82,-99.99,,,-99.99,meteohub,2013-04-07 12:09:00,
2013-04-07 07:15:00,48.0,43.2,29.80,North,-999,-999.0,-999.0,83,-99.99,,,-99.99,meteohub,2013-04-07 12:15:00,
2013-04-07 07:21:00,49.3,43.7,29.80,North,-999,-999.0,-999.0,81,-99.99,,,-99.99,meteohub,2013-04-07 12:21:00,
2013-04-07 07:27:00,49.1,42.8,29.81,North,-999,-999.0,-999.0,79,-99.99,,,-99.99,meteohub,2013-04-07 12:27:00,
2013-04-07 07:32:00,49.1,42.8,29.81,North,-999,-999.0,-999.0,79,-99.99,,,-99.99,meteohub,2013-04-07 12:32:00,
2013-04-07 07:39:00,50.7,44.8,29.81,North,-999,-999.0,-999.0,80,-99.99,,,-99.99,meteohub,2013-04-07 12:39:00,
2013-04-07 07:45:00,52.9,45.9,29.81,North,-999,-999.0,-999.0,77,-99.99,,,-99.99,meteohub,2013-04-07 12:45:00,
2013-04-07 07:52:00,55.0,46.6,29.81,North,-999,-999.0,-999.0,73,-99.99,,,-99.99,meteohub,2013-04-07 12:52:00,
2013-04-07 07:57:00,56.3,46.2,29.81,North,-999,-999.0,-999.0,69,-99.99,,,-99.99,meteohub,2013-04-07 12:57:00,
2013-04-07 08:02:00,57.0,46.6,29.81,North,-999,-999.0,-999.0,68,-99.99,,,-99.99,meteohub,2013-04-07 13:02:00,
2013-04-07 08:07:00,57.4,45.7,29.82,North,-999,-999.0,-999.0,65,-99.99,,,-99.99,meteohub,2013-04-07 13:07:00,
2013-04-07 08:13:00,57.7,46.4,29.82,North,-999,-999.0,-999.0,66,-99.99,,,-99.99,meteohub,2013-04-07 13:13:00,
2013-04-07 08:19:00,59.0,46.8,29.81,North,-999,-999.0,-999.0,64,-99.99,,,-99.99,meteohub,2013-04-07 13:19:00,
2013-04-07 08:25:00,60.3,48.0,29.82,North,-999,-999.0,-999.0,64,-99.99,,,-99.99,meteohub,2013-04-07 13:25:00,
2013-04-07 08:31:00,60.4,48.2,29.82,North,-999,-999.0,-999.0,64,-99.99,,,-99.99,meteohub,2013-04-07 13:31:00,
2013-04-07 08:37:00,63.7,49.1,29.81,North,-999,-999.0,-999.0,59,-99.99,,,-99.99,meteohub,2013-04-07 13:37:00,
2013-04-07 08:42:00,63.3,47.3,29.82,North,-999,-999.0,-999.0,56,-99.99,,,-99.99,meteohub,2013-04-07 13:42:00,
2013-04-07 08:50:00,62.1,47.5,29.82,North,-999,-999.0,-999.0,59,-99.99,,,-99.99,meteohub,2013-04-07 13:50:00,
2013-04-07 08:56:00,61.9,48.2,29.82,North,-999,-999.0,-999.0,61,-99.99,,,-99.99,meteohub,2013-04-07 13:56:00,
2013-04-07 09:02:00,63.0,49.3,29.82,North,-999,-999.0,-999.0,61,-99.99,,,-99.99,meteohub,2013-04-07 14:02:00,
2013-04-07 09:08:00,63.9,48.7,29.82,North,-999,-999.0,-999.0,58,-99.99,,,-99.99,meteohub,2013-04-07 14:08:00,
2013-04-07 09:15:00,63.9,47.8,29.82,North,-999,-999.0,-999.0,56,-99.99,,,-99.99,meteohub,2013-04-07 14:15:00,
2013-04-07 09:21:00,63.7,47.7,29.82,North,-999,-999.0,-999.0,56,-99.99,,,-99.99,meteohub,2013-04-07 14:21:00,
2013-04-07 09:27:00,63.3,48.4,29.82,North,-999,-999.0,-999.0,58,-99.99,,,-99.99,meteohub,2013-04-07 14:27:00,
2013-04-07 09:33:00,63.5,48.0,29.82,North,-999,-999.0,-999.0,57,-99.99,,,-99.99,meteohub,2013-04-07 14:33:00,
2013-04-07 09:39:00,63.5,47.5,29.82,North,-999,-999.0,-999.0,56,-99.99,,,-99.99,meteohub,2013-04-07 14:39:00,
2013-04-07 09:45:00,63.7,48.2,29.81,North,-999,-999.0,-999.0,57,-99.99,,,-99.99,meteohub,2013-04-07 14:45:00,
2013-04-07 09:51:00,64.2,47.7,29.82,North,-999,-999.0,-999.0,55,-99.99,,,-99.99,meteohub,2013-04-07 14:51:00,
2013-04-07 09:57:00,64.4,47.5,29.82,North,-999,-999.0,-999.0,54,-99.99,,,-99.99,meteohub,2013-04-07 14:57:00,
2013-04-07 10:04:00,64.2,46.8,29.81,North,-999,-999.0,-999.0,53,-99.99,,,-99.99,meteohub,2013-04-07 15:04:00,
2013-04-07 10:10:00,64.0,47.1,29.82,North,-999,-999.0,-999.0,54,-99.99,,,-99.99,meteohub,2013-04-07 15:10:00,
2013-04-07 10:17:00,63.9,47.8,29.82,North,-999,-999.0,-999.0,56,-99.99,,,-99.99,meteohub,2013-04-07 15:17:00,
2013-04-07 10:22:00,64.0,48.0,29.82,North,-999,-999.0,-999.0,56,-99.99,,,-99.99,meteohub,2013-04-07 15:22:00,
2013-04-07 10:29:00,64.4,48.4,29.82,North,-999,-999.0,-999.0,56,-99.99,,,-99.99,meteohub,2013-04-07 15:29:00,
2013-04-07 10:35:00,65.1,48.6,29.82,North,-999,-999.0,-999.0,55,-99.99,,,-99.99,meteohub,2013-04-07 15:35:00,
2013-04-07 10:41:00,65.7,49.1,29.82,North,-999,-999.0,-999.0,55,-99.99,,,-99.99,meteohub,2013-04-07 15:41:00,
2013-04-07 10:47:00,65.8,48.7,29.82,North,-999,-999.0,-999.0,54,-99.99,,,-99.99,meteohub,2013-04-07 15:47:00,
2013-04-07 10:52:00,66.0,47.8,29.82,North,-999,-999.0,-999.0,52,-99.99,,,-99.99,meteohub,2013-04-07 15:52:00,
2013-04-07 10:57:00,66.2,49.1,29.81,North,-999,-999.0,-999.0,54,-99.99,,,-99.99,meteohub,2013-04-07 15:57:00,
2013-04-07 11:02:00,66.4,47.7,29.81,North,-999,-999.0,-999.0,51,-99.99,,,-99.99,meteohub,2013-04-07 16:02:00,
2013-04-07 11:07:00,66.6,47.8,29.81,North,-999,-999.0,-999.0,51,-99.99,,,-99.99,meteohub,2013-04-07 16:07:00,
2013-04-07 11:15:00,68.4,50.0,29.81,North,-999,-999.0,-999.0,52,-99.99,,,-99.99,meteohub,2013-04-07 16:15:00,
2013-04-07 11:21:00,69.3,49.3,29.81,North,-999,-999.0,-999.0,49,-99.99,,,-99.99,meteohub,2013-04-07 16:21:00,
2013-04-07 11:27:00,70.3,48.6,29.81,North,-999,-999.0,-999.0,46,-99.99,,,-99.99,meteohub,2013-04-07 16:27:00,
2013-04-07 11:32:00,70.3,48.6,29.81,North,-999,-999.0,-999.0,46,-99.99,,,-99.99,meteohub,2013-04-07 16:32:00,
2013-04-07 11:40:00,70.0,47.7,29.82,North,-999,-999.0,-999.0,45,-99.99,,,-99.99,meteohub,2013-04-07 16:40:00,
2013-04-07 11:46:00,70.0,47.1,29.81,North,-999,-999.0,-999.0,44,-99.99,,,-99.99,meteohub,2013-04-07 16:46:00,
2013-04-07 11:52:00,70.2,47.3,29.81,North,-999,-999.0,-999.0,44,-99.99,,,-99.99,meteohub,2013-04-07 16:52:00,
2013-04-07 11:57:00,70.0,46.4,29.82,North,-999,-999.0,-999.0,43,-99.99,,,-99.99,meteohub,2013-04-07 16:57:00,
2013-04-07 12:04:00,69.8,45.7,29.82,North,-999,-999.0,-999.0,42,-99.99,,,-99.99,meteohub,2013-04-07 17:04:00,
2013-04-07 12:11:00,69.4,46.6,29.81,North,-999,-999.0,-999.0,44,-99.99,,,-99.99,meteohub,2013-04-07 17:11:00,
2013-04-07 12:17:00,69.6,47.8,29.82,North,-999,-999.0,-999.0,46,-99.99,,,-99.99,meteohub,2013-04-07 17:17:00,
2013-04-07 12:22:00,69.6,46.8,29.81,North,-999,-999.0,-999.0,44,-99.99,,,-99.99,meteohub,2013-04-07 17:22:00,
2013-04-07 12:29:00,69.4,46.6,29.82,North,-999,-999.0,-999.0,44,-99.99,,,-99.99,meteohub,2013-04-07 17:29:00,
2013-04-07 12:36:00,69.4,47.8,29.81,North,-999,-999.0,-999.0,46,-99.99,,,-99.99,meteohub,2013-04-07 17:36:00,
2013-04-07 12:42:00,70.0,48.2,29.81,North,-999,-999.0,-999.0,46,-99.99,,,-99.99,meteohub,2013-04-07 17:42:00,
2013-04-07 12:47:00,70.3,49.1,29.81,North,-999,-999.0,-999.0,47,-99.99,,,-99.99,meteohub,2013-04-07 17:47:00,
2013-04-07 12:54:00,70.9,47.3,29.80,North,-999,-999.0,-999.0,43,-99.99,,,-99.99,meteohub,2013-04-07 17:54:00,
2013-04-07 13:00:00,71.1,46.8,29.80,North,-999,-999.0,-999.0,42,-99.99,,,-99.99,meteohub,2013-04-07 18:00:00,
2013-04-07 13:07:00,71.1,48.0,29.79,North,-999,-999.0,-999.0,44,-99.99,,,-99.99,meteohub,2013-04-07 18:07:00,
2013-04-07 13:12:00,70.7,47.1,29.79,North,-999,-999.0,-999.0,43,-99.99,,,-99.99,meteohub,2013-04-07 18:12:00,
2013-04-07 13:19:00,70.5,48.2,29.78,North,-999,-999.0,-999.0,45,-99.99,,,-99.99,meteohub,2013-04-07 18:19:00,
2013-04-07 13:25:00,70.5,48.2,29.78,North,-999,-999.0,-999.0,45,-99.99,,,-99.99,meteohub,2013-04-07 18:25:00,
2013-04-07 13:31:00,70.5,48.2,29.78,North,-999,-999.0,-999.0,45,-99.99,,,-99.99,meteohub,2013-04-07 18:31:00,
2013-04-07 13:37:00,70.7,48.4,29.78,North,-999,-999.0,-999.0,45,-99.99,,,-99.99,meteohub,2013-04-07 18:37:00,
2013-04-07 13:44:00,71.2,46.9,29.78,North,-999,-999.0,-999.0,42,-99.99,,,-99.99,meteohub,2013-04-07 18:44:00,
2013-04-07 13:50:00,71.2,47.7,29.78,North,-999,-999.0,-999.0,43,-99.99,,,-99.99,meteohub,2013-04-07 18:50:00,
2013-04-07 13:56:00,70.9,47.8,29.77,North,-999,-999.0,-999.0,44,-99.99,,,-99.99,meteohub,2013-04-07 18:56:00,
2013-04-07 14:02:00,70.7,48.4,29.77,North,-999,-999.0,-999.0,45,-99.99,,,-99.99,meteohub,2013-04-07 19:02:00,
2013-04-07 14:09:00,71.1,48.0,29.77,North,-999,-999.0,-999.0,44,-99.99,,,-99.99,meteohub,2013-04-07 19:09:00,
2013-04-07 14:15:00,71.4,48.4,29.76,North,-999,-999.0,-999.0,44,-99.99,,,-99.99,meteohub,2013-04-07 19:15:00,
2013-04-07 14:21:00,71.2,48.7,29.76,North,-999,-999.0,-999.0,45,-99.99,,,-99.99,meteohub,2013-04-07 19:21:00,
2013-04-07 14:27:00,70.5,48.2,29.76,North,-999,-999.0,-999.0,45,-99.99,,,-99.99,meteohub,2013-04-07 19:27:00,
2013-04-07 14:34:00,69.4,48.9,29.76,North,-999,-999.0,-999.0,48,-99.99,,,-99.99,meteohub,2013-04-07 19:34:00,
2013-04-07 14:40:00,68.9,48.9,29.75,North,-999,-999.0,-999.0,49,-99.99,,,-99.99,meteohub,2013-04-07 19:40:00,
2013-04-07 14:46:00,68.7,49.3,29.75,North,-999,-999.0,-999.0,50,-99.99,,,-99.99,meteohub,2013-04-07 19:46:00,
2013-04-07 14:52:00,68.4,50.0,29.74,North,-999,-999.0,-999.0,52,-99.99,,,-99.99,meteohub,2013-04-07 19:52:00,
2013-04-07 14:59:00,68.5,50.2,29.73,North,-999,-999.0,-999.0,52,-99.99,,,-99.99,meteohub,2013-04-07 19:59:00,
2013-04-07 15:05:00,68.9,52.0,29.73,North,-999,-999.0,-999.0,55,-99.99,,,-99.99,meteohub,2013-04-07 20:05:00,
2013-04-07 15:12:00,68.9,51.1,29.73,North,-999,-999.0,-999.0,53,-99.99,,,-99.99,meteohub,2013-04-07 20:12:00,
2013-04-07 15:17:00,69.1,50.7,29.74,North,-999,-999.0,-999.0,52,-99.99,,,-99.99,meteohub,2013-04-07 20:17:00,
2013-04-07 15:24:00,69.4,50.5,29.74,North,-999,-999.0,-999.0,51,-99.99,,,-99.99,meteohub,2013-04-07 20:24:00,
2013-04-07 15:30:00,69.6,51.3,29.74,North,-999,-999.0,-999.0,52,-99.99,,,-99.99,meteohub,2013-04-07 20:30:00,
2013-04-07 15:36:00,69.6,51.3,29.73,North,-999,-999.0,-999.0,52,-99.99,,,-99.99,meteohub,2013-04-07 20:36:00,
2013-04-07 15:42:00,69.6,51.8,29.72,North,-999,-999.0,-999.0,53,-99.99,,,-99.99,meteohub,2013-04-07 20:42:00,
2013-04-07 15:49:00,69.4,52.2,29.72,North,-999,-999.0,-999.0,54,-99.99,,,-99.99,meteohub,2013-04-07 20:49:00,
2013-04-07 15:55:00,69.3,52.0,29.73,North,-999,-999.0,-999.0,54,-99.99,,,-99.99,meteohub,2013-04-07 20:55:00,
2013-04-07 16:01:00,69.1,52.7,29.72,North,-999,-999.0,-999.0,56,-99.99,,,-99.99,meteohub,2013-04-07 21:01:00,
2013-04-07 16:07:00,69.1,53.2,29.72,North,-999,-999.0,-999.0,57,-99.99,,,-99.99,meteohub,2013-04-07 21:07:00,
2013-04-07 16:14:00,69.1,54.1,29.71,North,-999,-999.0,-999.0,59,-99.99,,,-99.99,meteohub,2013-04-07 21:14:00,
2013-04-07 16:20:00,68.9,54.0,29.70,North,-999,-999.0,-999.0,59,-99.99,,,-99.99,meteohub,2013-04-07 21:20:00,
2013-04-07 16:27:00,68.7,54.3,29.70,North,-999,-999.0,-999.0,60,-99.99,,,-99.99,meteohub,2013-04-07 21:27:00,
2013-04-07 16:32:00,68.7,54.3,29.70,North,-999,-999.0,-999.0,60,-99.99,,,-99.99,meteohub,2013-04-07 21:32:00,
2013-04-07 16:39:00,68.4,54.9,29.70,North,-999,-999.0,-999.0,62,-99.99,,,-99.99,meteohub,2013-04-07 21:39:00,
2013-04-07 16:45:00,68.4,55.2,29.69,North,-999,-999.0,-999.0,63,-99.99,,,-99.99,meteohub,2013-04-07 21:45:00,
2013-04-07 16:51:00,68.4,55.2,29.69,North,-999,-999.0,-999.0,63,-99.99,,,-99.99,meteohub,2013-04-07 21:51:00,
2013-04-07 16:57:00,68.4,55.2,29.70,North,-999,-999.0,-999.0,63,-99.99,,,-99.99,meteohub,2013-04-07 21:57:00,
2013-04-07 17:04:00,68.2,54.7,29.69,North,-999,-999.0,-999.0,62,-99.99,,,-99.99,meteohub,2013-04-07 22:04:00,
2013-04-07 17:10:00,68.0,54.5,29.68,North,-999,-999.0,-999.0,62,-99.99,,,-99.99,meteohub,2013-04-07 22:10:00,
2013-04-07 17:16:00,68.0,55.4,29.68,North,-999,-999.0,-999.0,64,-99.99,,,-99.99,meteohub,2013-04-07 22:16:00,
2013-04-07 17:22:00,67.8,54.7,29.67,North,-999,-999.0,-999.0,63,-99.99,,,-99.99,meteohub,2013-04-07 22:22:00,
2013-04-07 17:29:00,67.8,54.7,29.67,North,-999,-999.0,-999.0,63,-99.99,,,-99.99,meteohub,2013-04-07 22:29:00,
2013-04-07 17:34:00,67.8,55.2,29.66,North,-999,-999.0,-999.0,64,-99.99,,,-99.99,meteohub,2013-04-07 22:34:00,
2013-04-07 17:41:00,68.9,54.9,29.65,North,-999,-999.0,-999.0,61,-99.99,,,-99.99,meteohub,2013-04-07 22:41:00,
2013-04-07 17:47:00,69.3,54.3,29.65,North,-999,-999.0,-999.0,59,-99.99,,,-99.99,meteohub,2013-04-07 22:47:00,
2013-04-07 17:53:00,69.3,54.9,29.64,North,-999,-999.0,-999.0,60,-99.99,,,-99.99,meteohub,2013-04-07 22:53:00,
2013-04-07 17:59:00,69.3,54.3,29.64,North,-999,-999.0,-999.0,59,-99.99,,,-99.99,meteohub,2013-04-07 22:59:00,
2013-04-07 18:05:00,68.9,54.0,29.65,North,-999,-999.0,-999.0,59,-99.99,,,-99.99,meteohub,2013-04-07 23:05:00,
2013-04-07 18:11:00,68.5,54.1,29.66,North,-999,-999.0,-999.0,60,-99.99,,,-99.99,meteohub,2013-04-07 23:11:00,
2013-04-07 18:17:00,67.8,54.3,29.66,North,-999,-999.0,-999.0,62,-99.99,,,-99.99,meteohub,2013-04-07 23:17:00,
2013-04-07 18:22:00,66.6,55.2,29.65,North,-999,-999.0,-999.0,67,-99.99,,,-99.99,meteohub,2013-04-07 23:22:00,
2013-04-07 18:30:00,64.9,54.1,29.64,North,-999,-999.0,-999.0,68,-99.99,,,-99.99,meteohub,2013-04-07 23:30:00,
2013-04-07 18:36:00,64.2,54.7,29.63,North,-999,-999.0,-999.0,71,-99.99,,,-99.99,meteohub,2013-04-07 23:36:00,
2013-04-07 18:42:00,64.2,53.8,29.63,North,-999,-999.0,-999.0,69,-99.99,,,-99.99,meteohub,2013-04-07 23:42:00,
2013-04-07 18:48:00,63.9,53.4,29.63,North,-999,-999.0,-999.0,69,-99.99,,,-99.99,meteohub,2013-04-07 23:48:00,
2013-04-07 18:54:00,62.8,53.2,29.63,North,-999,-999.0,-999.0,71,-99.99,,,-99.99,meteohub,2013-04-07 23:54:00,
2013-04-07 19:00:00,62.8,53.2,29.62,North,-999,-999.0,-999.0,71,-99.99,,,-99.99,meteohub,2013-04-08 00:00:00,
2013-04-07 19:07:00,63.1,52.3,29.62,North,-999,-999.0,-999.0,68,-99.99,,,-99.99,meteohub,2013-04-08 00:07:00,
2013-04-07 19:12:00,63.5,52.7,29.62,North,-999,-999.0,-999.0,68,-99.99,,,-99.99,meteohub,2013-04-08 00:12:00,
2013-04-07 19:17:00,63.7,52.5,29.63,North,-999,-999.0,-999.0,67,-99.99,,,-99.99,meteohub,2013-04-08 00:17:00,
2013-04-07 19:22:00,63.7,52.9,29.63,North,-999,-999.0,-999.0,68,-99.99,,,-99.99,meteohub,2013-04-08 00:22:00,
2013-04-07 19:27:00,62.8,53.6,29.63,North,-999,-999.0,-999.0,72,-99.99,,,-99.99,meteohub,2013-04-08 00:27:00,
2013-04-07 19:35:00,61.9,54.3,29.62,North,-999,-999.0,-999.0,76,-99.99,,,-99.99,meteohub,2013-04-08 00:35:00,
2013-04-07 19:41:00,61.9,53.8,29.62,North,-999,-999.0,-999.0,75,-99.99,,,-99.99,meteohub,2013-04-08 00:41:00,
2013-04-07 19:47:00,61.9,54.3,29.62,North,-999,-999.0,-999.0,76,-99.99,,,-99.99,meteohub,2013-04-08 00:47:00,
2013-04-07 19:52:00,62.2,53.8,29.62,North,-999,-999.0,-999.0,74,-99.99,,,-99.99,meteohub,2013-04-08 00:52:00,
2013-04-07 19:59:00,62.1,54.0,29.62,North,-999,-999.0,-999.0,75,-99.99,,,-99.99,meteohub,2013-04-08 00:59:00,
2013-04-07 20:05:00,61.7,54.9,29.61,North,-999,-999.0,-999.0,78,-99.99,,,-99.99,meteohub,2013-04-08 01:05:00,
2013-04-07 20:12:00,61.2,54.9,29.62,North,-999,-999.0,-999.0,80,-99.99,,,-99.99,meteohub,2013-04-08 01:12:00,
2013-04-07 20:17:00,60.8,55.2,29.62,North,-999,-999.0,-999.0,82,-99.99,,,-99.99,meteohub,2013-04-08 01:17:00,
2013-04-07 20:24:00,60.1,55.9,29.65,North,-999,-999.0,-999.0,86,-99.99,,,-99.99,meteohub,2013-04-08 01:24:00,
2013-04-07 20:30:00,59.9,55.9,29.66,North,-999,-999.0,-999.0,87,-99.99,,,-99.99,meteohub,2013-04-08 01:30:00,
2013-04-07 20:36:00,59.9,55.8,29.64,North,-999,-999.0,-999.0,86,-99.99,,,-99.99,meteohub,2013-04-08 01:36:00,
2013-04-07 20:42:00,59.9,55.8,29.64,North,-999,-999.0,-999.0,86,-99.99,,,-99.99,meteohub,2013-04-08 01:42:00,
2013-04-07 20:49:00,59.9,55.8,29.64,North,-999,-999.0,-999.0,86,-99.99,,,-99.99,meteohub,2013-04-08 01:49:00,
2013-04-07 20:55:00,59.7,56.1,29.63,North,-999,-999.0,-999.0,88,-99.99,,,-99.99,meteohub,2013-04-08 01:55:00,
2013-04-07 21:01:00,59.4,56.1,29.63,North,-999,-999.0,-999.0,89,-99.99,,,-99.99,meteohub,2013-04-08 02:01:00,
2013-04-07 21:07:00,59.4,56.1,29.63,North,-999,-999.0,-999.0,89,-99.99,,,-99.99,meteohub,2013-04-08 02:07:00,
2013-04-07 21:13:00,59.2,56.3,29.65,North,-999,-999.0,-999.0,90,-99.99,,,-99.99,meteohub,2013-04-08 02:13:00,
2013-04-07 21:20:00,59.0,56.3,29.65,North,-999,-999.0,-999.0,91,-99.99,,,-99.99,meteohub,2013-04-08 02:20:00,
2013-04-07 21:26:00,58.8,56.5,29.65,North,-999,-999.0,-999.0,92,-99.99,,,-99.99,meteohub,2013-04-08 02:26:00,
2013-04-07 21:32:00,58.8,56.5,29.66,North,-999,-999.0,-999.0,92,-99.99,,,-99.99,meteohub,2013-04-08 02:32:00,
2013-04-07 21:38:00,59.2,56.5,29.67,North,-999,-999.0,-999.0,91,-99.99,,,-99.99,meteohub,2013-04-08 02:38:00,
2013-04-07 21:45:00,59.0,56.7,29.66,North,-999,-999.0,-999.0,92,-99.99,,,-99.99,meteohub,2013-04-08 02:45:00,
2013-04-07 21:51:00,58.8,56.8,29.66,North,-999,-999.0,-999.0,93,-99.99,,,-99.99,meteohub,2013-04-08 02:51:00,
2013-04-07 21:57:00,58.6,56.8,29.66,North,-999,-999.0,-999.0,94,-99.99,,,-99.99,meteohub,2013-04-08 02:57:00,
2013-04-07 22:04:00,58.6,57.2,29.66,North,-999,-999.0,-999.0,95,-99.99,,,-99.99,meteohub,2013-04-08 03:04:00,
2013-04-07 22:09:00,58.8,57.4,29.66,North,-999,-999.0,-999.0,95,-99.99,,,-99.99,meteohub,2013-04-08 03:09:00,
2013-04-07 22:16:00,58.8,57.7,29.66,North,-999,-999.0,-999.0,96,-99.99,,,-99.99,meteohub,2013-04-08 03:16:00,
2013-04-07 22:22:00,58.8,57.7,29.66,North,-999,-999.0,-999.0,96,-99.99,,,-99.99,meteohub,2013-04-08 03:22:00,
2013-04-07 22:27:00,59.0,57.9,29.66,North,-999,-999.0,-999.0,96,-99.99,,,-99.99,meteohub,2013-04-08 03:27:00,
2013-04-07 22:34:00,59.0,57.9,29.66,North,-999,-999.0,-999.0,96,-99.99,,,-99.99,meteohub,2013-04-08 03:34:00,
2013-04-07 22:40:00,59.0,58.1,29.65,North,-999,-999.0,-999.0,97,-99.99,,,-99.99,meteohub,2013-04-08 03:40:00,
2013-04-07 22:47:00,59.0,58.1,29.66,North,-999,-999.0,-999.0,97,-99.99,,,-99.99,meteohub,2013-04-08 03:47:00,
2013-04-07 22:52:00,59.0,58.5,29.66,North,-999,-999.0,-999.0,98,-99.99,,,-99.99,meteohub,2013-04-08 03:52:00,
2013-04-07 22:59:00,59.0,58.5,29.65,North,-999,-999.0,-999.0,98,-99.99,,,-99.99,meteohub,2013-04-08 03:59:00,
2013-04-07 23:02:00,59.0,58.5,29.65,North,-999,-999.0,-999.0,98,-99.99,,,-99.99,meteohub,2013-04-08 04:02:00,
2013-04-07 23:05:00,59.0,58.5,29.65,North,-999,-999.0,-999.0,98,-99.99,,,-99.99,meteohub,2013-04-08 04:05:00,
2013-04-07 23:07:00,59.0,58.6,29.65,North,-999,-999.0,-999.0,99,-99.99,,,-99.99,meteohub,2013-04-08 04:07:00,
2013-04-07 23:08:00,59.0,58.6,29.65,North,-999,-999.0,-999.0,99,-99.99,,,-99.99,meteohub,2013-04-08 04:08:00,
2013-04-07 23:14:00,59.0,58.6,29.66,North,-999,-999.0,-999.0,99,-99.99,,,-99.99,meteohub,2013-04-08 04:14:00,
2013-04-07 23:20:00,59.0,58.6,29.65,North,-999,-999.0,-999.0,99,-99.99,,,-99.99,meteohub,2013-04-08 04:20:00,
2013-04-07 23:26:00,59.0,58.6,29.66,North,-999,-999.0,-999.0,99,-99.99,,,-99.99,meteohub,2013-04-08 04:26:00,
2013-04-07 23:32:00,59.0,58.6,29.66,North,-999,-999.0,-999.0,99,-99.99,,,-99.99,meteohub,2013-04-08 04:32:00,
2013-04-07 23:37:00,59.2,58.8,29.66,North,-999,-999.0,-999.0,99,-99.99,,,-99.99,meteohub,2013-04-08 04:37:00,
2013-04-07 23:45:00,59.5,59.2,29.65,North,-999,-999.0,-999.0,99,-99.99,,,-99.99,meteohub,2013-04-08 04:45:00,
2013-04-07 23:51:00,59.5,59.2,29.64,North,-999,-999.0,-999.0,99,-99.99,,,-99.99,meteohub,2013-04-08 04:51:00,
2013-04-07 23:57:00,59.5,59.2,29.65,North,-999,-999.0,-999.0,99,-99.99,,,-99.99,meteohub,2013-04-08 04:57:00,